createdAt,value
2018-05-31T00:01:32.391Z,22.80
2018-05-31T00:03:59.874Z,22.70
2018-05-31T00:06:28.116Z,22.80
2018-05-31T00:08:55.579Z,22.70
2018-05-31T00:11:23.053Z,22.80
2018-05-31T00:13:50.518Z,22.80
2018-05-31T00:16:18.129Z,22.80
2018-05-31T00:18:45.603Z,22.70
2018-05-31T00:21:13.065Z,22.70
2018-05-31T00:23:40.533Z,22.60
2018-05-31T00:26:09.597Z,22.50
2018-05-31T00:28:37.070Z,22.40
2018-05-31T00:31:04.531Z,22.50
2018-05-31T00:33:32.017Z,22.50
2018-05-31T00:36:00.270Z,22.50
2018-05-31T00:38:27.744Z,22.40
2018-05-31T00:40:55.286Z,22.50
2018-05-31T00:43:22.750Z,22.40
2018-05-31T00:45:50.311Z,22.40
2018-05-31T00:48:17.778Z,22.30
2018-05-31T00:50:46.008Z,22.20
2018-05-31T00:53:13.504Z,22.20
2018-05-31T00:55:52.930Z,22.20
2018-05-31T00:58:20.599Z,22.20
2018-05-31T01:00:48.060Z,22.20
2018-05-31T01:03:16.295Z,22.20
2018-05-31T01:05:43.777Z,22.10
2018-05-31T01:08:12.054Z,22.10
2018-05-31T01:10:39.513Z,22.10
2018-05-31T01:13:07.060Z,22.10
2018-05-31T01:15:34.527Z,22.00
2018-05-31T01:18:02.083Z,22.00
2018-05-31T01:20:29.540Z,22.00
2018-05-31T01:22:58.509Z,21.80
2018-05-31T01:25:25.967Z,21.90
2018-05-31T01:27:53.450Z,21.90
2018-05-31T01:30:22.446Z,21.80
2018-05-31T01:32:50.719Z,21.70
2018-05-31T01:35:18.174Z,21.70
2018-05-31T01:37:45.736Z,21.70
2018-05-31T01:40:13.190Z,21.70
2018-05-31T01:42:40.759Z,21.70
2018-05-31T01:45:08.312Z,21.70
2018-05-31T01:47:35.811Z,21.70
2018-05-31T01:50:03.277Z,21.60
2018-05-31T01:52:30.838Z,21.60
2018-05-31T01:54:58.334Z,21.60
2018-05-31T01:57:25.896Z,21.60
2018-05-31T01:59:53.451Z,21.60
2018-05-31T02:02:21.019Z,21.50
2018-05-31T02:04:48.487Z,21.40
2018-05-31T02:07:16.746Z,21.30
2018-05-31T02:09:44.307Z,21.30
2018-05-31T02:12:11.867Z,21.30
2018-05-31T02:14:39.326Z,21.30
2018-05-31T02:17:06.891Z,21.30
2018-05-31T02:19:35.127Z,21.40
2018-05-31T02:22:02.618Z,21.40
2018-05-31T02:24:30.083Z,21.50
2018-05-31T02:26:58.403Z,21.40
2018-05-31T02:29:25.866Z,21.40
2018-05-31T02:31:53.327Z,21.30
2018-05-31T02:34:20.797Z,21.40
2018-05-31T02:36:48.263Z,21.30
2018-05-31T02:39:15.838Z,21.30
2018-05-31T02:41:43.294Z,21.40
2018-05-31T02:44:10.844Z,21.40
2018-05-31T02:46:38.310Z,21.40
2018-05-31T02:49:05.779Z,21.40
2018-05-31T02:51:34.092Z,21.40
2018-05-31T02:54:01.601Z,21.30
2018-05-31T02:56:29.154Z,21.40
2018-05-31T02:58:56.715Z,21.40
2018-05-31T03:01:24.215Z,21.30
2018-05-31T03:03:51.681Z,21.30
2018-05-31T03:06:19.185Z,21.20
2018-05-31T03:08:47.436Z,21.20
2018-05-31T03:11:15.006Z,21.10
2018-05-31T03:13:42.465Z,21.20
2018-05-31T03:16:10.038Z,21.30
2018-05-31T03:18:37.597Z,21.30
2018-05-31T03:21:05.154Z,21.30
2018-05-31T03:23:33.431Z,21.30
2018-05-31T03:26:01.761Z,21.30
2018-05-31T03:28:29.219Z,21.20
2018-05-31T03:30:56.683Z,21.30
2018-05-31T03:33:25.035Z,21.20
2018-05-31T03:35:52.560Z,21.20
2018-05-31T03:38:20.022Z,21.20
2018-05-31T03:40:48.295Z,21.30
2018-05-31T03:43:15.839Z,21.20
2018-05-31T03:45:43.319Z,21.30
2018-05-31T03:48:11.633Z,21.30
2018-05-31T03:50:39.179Z,21.20
2018-05-31T03:53:06.651Z,21.30
2018-05-31T03:55:34.120Z,21.30
2018-05-31T03:58:01.587Z,21.30
2018-05-31T04:00:29.220Z,21.40
2018-05-31T04:02:56.700Z,21.50
2018-05-31T04:05:24.274Z,21.50
2018-05-31T04:07:51.844Z,21.70
2018-05-31T04:10:19.407Z,21.70
2018-05-31T04:12:47.027Z,21.80
2018-05-31T04:15:14.633Z,21.90
2018-05-31T04:17:43.108Z,21.90
2018-05-31T04:20:10.687Z,21.90
2018-05-31T04:22:39.252Z,21.90
2018-05-31T04:25:06.810Z,21.90
2018-05-31T04:27:34.434Z,21.90
2018-05-31T04:30:02.016Z,22.00
2018-05-31T04:32:29.669Z,22.10
2018-05-31T04:34:57.309Z,22.10
2018-05-31T04:37:25.011Z,22.20
2018-05-31T04:39:53.338Z,22.30
2018-05-31T04:42:20.842Z,22.30
2018-05-31T04:44:48.387Z,22.40
2018-05-31T04:47:15.954Z,22.40
2018-05-31T04:49:43.519Z,22.60
2018-05-31T04:52:11.004Z,22.60
2018-05-31T04:54:38.471Z,22.70
2018-05-31T04:57:05.954Z,22.80
2018-05-31T04:59:33.430Z,22.90
2018-05-31T05:02:00.898Z,22.90
2018-05-31T05:04:28.386Z,22.90
2018-05-31T05:06:55.919Z,23.00
2018-05-31T05:09:23.462Z,23.00
2018-05-31T05:11:50.985Z,23.10
2018-05-31T05:14:18.459Z,23.10
2018-05-31T05:16:45.940Z,23.20
2018-05-31T05:19:13.417Z,23.20
2018-05-31T05:21:41.691Z,23.30
2018-05-31T05:24:09.245Z,23.30
2018-05-31T05:26:36.791Z,23.50
2018-05-31T05:29:04.351Z,23.50
2018-05-31T05:31:31.826Z,23.60
2018-05-31T05:34:00.096Z,23.80
2018-05-31T05:36:28.347Z,23.80
2018-05-31T05:38:55.936Z,23.80
2018-05-31T05:41:24.190Z,23.90
2018-05-31T05:43:51.672Z,23.90
2018-05-31T05:46:19.902Z,24.00
2018-05-31T05:48:47.381Z,24.00
2018-05-31T05:51:14.846Z,24.10
2018-05-31T05:53:42.398Z,24.20
2018-05-31T05:56:09.872Z,24.20
2018-05-31T05:58:38.119Z,24.30
2018-05-31T06:01:05.590Z,24.20
2018-05-31T06:03:33.144Z,24.40
2018-05-31T06:06:00.699Z,24.40
2018-05-31T06:08:28.183Z,24.30
2018-05-31T06:10:56.426Z,24.50
2018-05-31T06:13:23.994Z,24.40
2018-05-31T06:15:51.743Z,24.60
2018-05-31T06:18:19.207Z,24.70
2018-05-31T06:20:46.771Z,24.80
2018-05-31T06:23:14.391Z,24.80
2018-05-31T06:25:41.891Z,24.80
2018-05-31T06:28:09.411Z,24.90
2018-05-31T06:30:36.906Z,25.00
2018-05-31T06:33:04.421Z,25.10
2018-05-31T06:35:31.905Z,25.10
2018-05-31T06:37:59.478Z,25.20
2018-05-31T06:40:26.934Z,25.40
2018-05-31T06:42:54.500Z,25.50
2018-05-31T06:45:21.982Z,25.50
2018-05-31T06:47:50.226Z,25.50
2018-05-31T06:50:17.691Z,25.40
2018-05-31T06:52:45.167Z,25.60
2018-05-31T06:55:13.410Z,25.90
2018-05-31T06:57:40.859Z,25.80
2018-05-31T07:00:08.326Z,26.00
2018-05-31T07:02:35.784Z,26.10
2018-05-31T07:05:03.242Z,26.10
2018-05-31T07:07:30.826Z,26.20
2018-05-31T07:09:59.076Z,26.20
2018-05-31T07:12:26.530Z,26.20
2018-05-31T07:14:54.120Z,26.20
2018-05-31T07:17:22.383Z,26.20
2018-05-31T07:19:49.927Z,26.20
2018-05-31T07:22:17.393Z,26.30
2018-05-31T07:24:44.847Z,26.40
2018-05-31T07:27:12.410Z,26.50
2018-05-31T07:29:39.979Z,26.50
2018-05-31T07:32:08.216Z,26.80
2018-05-31T07:34:35.785Z,26.70
2018-05-31T07:37:03.250Z,26.80
2018-05-31T07:39:30.803Z,26.90
2018-05-31T07:41:58.282Z,27.00
2018-05-31T07:44:26.528Z,27.00
2018-05-31T07:46:54.052Z,26.90
2018-05-31T07:49:21.534Z,27.00
2018-05-31T07:51:48.994Z,27.20
2018-05-31T07:54:16.463Z,27.30
2018-05-31T07:56:43.957Z,27.40
2018-05-31T07:59:12.195Z,27.40
2018-05-31T08:01:39.795Z,27.40
2018-05-31T08:04:07.278Z,27.50
2018-05-31T08:06:34.879Z,27.50
2018-05-31T08:09:02.450Z,27.60
2018-05-31T08:11:30.793Z,27.80
2018-05-31T08:13:58.250Z,27.80
2018-05-31T08:16:25.932Z,27.90
2018-05-31T08:18:53.605Z,27.90
2018-05-31T08:21:21.197Z,27.80
2018-05-31T08:23:48.652Z,27.90
2018-05-31T08:26:16.111Z,27.80
2018-05-31T08:28:43.596Z,27.80
2018-05-31T08:31:11.087Z,27.80
2018-05-31T08:33:38.578Z,27.90
2018-05-31T08:36:06.094Z,27.80
2018-05-31T08:38:33.650Z,27.90
2018-05-31T08:41:01.122Z,27.90
2018-05-31T08:43:29.365Z,28.10
2018-05-31T08:45:57.043Z,28.10
2018-05-31T08:48:25.788Z,28.40
2018-05-31T08:50:53.429Z,28.30
2018-05-31T08:53:20.997Z,28.40
2018-05-31T08:55:48.523Z,28.60
2018-05-31T08:58:16.066Z,28.60
2018-05-31T09:00:43.532Z,28.80
2018-05-31T09:03:11.082Z,28.90
2018-05-31T09:05:39.314Z,29.20
2018-05-31T09:08:06.815Z,29.10
2018-05-31T09:10:34.375Z,29.30
2018-05-31T09:13:01.838Z,29.50
2018-05-31T09:15:30.075Z,29.30
2018-05-31T09:17:57.546Z,29.30
2018-05-31T09:20:25.016Z,29.30
2018-05-31T09:22:52.573Z,29.40
2018-05-31T09:25:20.039Z,29.60
2018-05-31T09:27:47.541Z,29.70
2018-05-31T09:30:15.754Z,30.00
2018-05-31T09:32:43.222Z,30.00
2018-05-31T09:35:10.783Z,30.30
2018-05-31T09:37:38.243Z,30.70
2018-05-31T09:40:06.510Z,31.80
2018-05-31T09:42:34.743Z,32.20
2018-05-31T09:45:02.208Z,32.10
2018-05-31T09:47:29.681Z,32.50
2018-05-31T09:49:57.175Z,32.60
2018-05-31T09:52:25.733Z,32.80
2018-05-31T09:54:53.186Z,32.70
2018-05-31T09:57:20.663Z,32.90
2018-05-31T09:59:48.903Z,32.80
2018-05-31T10:02:16.369Z,32.60
2018-05-31T10:04:43.882Z,32.40
2018-05-31T10:07:11.398Z,32.30
2018-05-31T10:09:38.855Z,32.00
2018-05-31T10:12:06.408Z,32.00
2018-05-31T10:14:33.930Z,31.60
2018-05-31T10:17:01.432Z,31.60
2018-05-31T10:19:28.899Z,31.60
2018-05-31T10:21:56.362Z,31.70
2018-05-31T10:24:24.627Z,31.60
2018-05-31T10:26:52.178Z,31.60
2018-05-31T10:29:20.455Z,31.70
2018-05-31T10:31:48.019Z,31.60
2018-05-31T10:34:16.983Z,31.90
2018-05-31T10:36:44.519Z,31.90
2018-05-31T10:39:12.027Z,32.00
2018-05-31T10:41:39.487Z,32.00
2018-05-31T10:44:07.028Z,32.00
2018-05-31T10:46:34.511Z,32.20
2018-05-31T10:49:03.471Z,32.60
2018-05-31T10:51:30.998Z,32.60
2018-05-31T10:53:58.525Z,32.70
2018-05-31T10:56:26.752Z,33.10
2018-05-31T10:58:54.229Z,33.00
2018-05-31T11:01:21.815Z,33.10
2018-05-31T11:03:50.066Z,33.10
2018-05-31T11:06:17.528Z,33.10
2018-05-31T11:08:45.069Z,33.30
2018-05-31T11:11:12.529Z,33.50
2018-05-31T11:13:40.100Z,33.40
2018-05-31T11:16:07.650Z,33.30
2018-05-31T11:18:35.212Z,33.40
2018-05-31T11:21:02.670Z,33.50
2018-05-31T11:23:30.226Z,33.50
2018-05-31T11:25:57.693Z,33.70
2018-05-31T11:28:25.176Z,34.10
2018-05-31T11:30:53.400Z,34.50
2018-05-31T11:33:20.932Z,34.50
2018-05-31T11:35:48.426Z,34.70
2018-05-31T11:38:15.912Z,34.50
2018-05-31T11:40:44.166Z,33.70
2018-05-31T11:43:12.441Z,33.60
2018-05-31T11:45:40.004Z,33.50
2018-05-31T11:48:07.454Z,33.60
2018-05-31T11:50:35.019Z,33.80
2018-05-31T11:53:02.497Z,34.10
2018-05-31T11:55:30.718Z,34.40
2018-05-31T11:57:58.200Z,34.40
2018-05-31T12:00:25.760Z,34.70
2018-05-31T12:02:53.210Z,34.80
2018-05-31T12:05:20.689Z,34.70
2018-05-31T12:07:48.141Z,34.70
2018-05-31T12:10:15.611Z,35.00
2018-05-31T12:12:43.856Z,35.30
2018-05-31T12:15:11.318Z,35.30
2018-05-31T12:17:38.934Z,35.40
2018-05-31T12:20:06.376Z,35.40
2018-05-31T12:22:34.606Z,35.30
2018-05-31T12:25:02.170Z,35.30
2018-05-31T12:27:29.727Z,35.40
2018-05-31T12:29:57.953Z,35.50
2018-05-31T12:32:25.463Z,35.40
2018-05-31T12:34:52.938Z,35.60
2018-05-31T12:37:21.168Z,35.60
2018-05-31T12:39:48.641Z,35.50
2018-05-31T12:42:16.203Z,35.00
2018-05-31T12:44:43.767Z,34.90
2018-05-31T12:47:11.230Z,35.20
2018-05-31T12:49:38.702Z,35.60
2018-05-31T12:52:06.931Z,35.90
2018-05-31T12:54:34.574Z,35.90
2018-05-31T12:57:02.079Z,36.20
2018-05-31T12:59:29.535Z,36.30
2018-05-31T13:01:57.086Z,36.40
2018-05-31T13:04:24.542Z,36.50
2018-05-31T13:06:52.020Z,36.50
2018-05-31T13:09:19.474Z,36.40
2018-05-31T13:11:47.706Z,35.40
2018-05-31T13:14:15.191Z,35.30
2018-05-31T13:16:42.743Z,35.00
2018-05-31T13:19:10.206Z,34.50
2018-05-31T13:21:37.675Z,34.20
2018-05-31T13:24:05.904Z,33.50
2018-05-31T13:26:33.393Z,33.40
2018-05-31T13:29:00.861Z,33.40
2018-05-31T13:31:28.361Z,33.80
2018-05-31T13:33:55.806Z,34.30
2018-05-31T13:36:23.268Z,34.80
2018-05-31T13:38:50.729Z,35.20
2018-05-31T13:41:18.245Z,35.80
2018-05-31T13:43:45.801Z,35.70
2018-05-31T13:46:13.349Z,35.90
2018-05-31T13:48:40.916Z,35.90
2018-05-31T13:51:08.375Z,35.90
2018-05-31T13:53:35.833Z,36.00
2018-05-31T13:56:03.375Z,36.10
2018-05-31T13:58:30.841Z,35.60
2018-05-31T14:00:58.303Z,35.30
2018-05-31T14:03:25.882Z,35.40
2018-05-31T14:05:54.134Z,36.20
2018-05-31T14:08:21.645Z,36.20
2018-05-31T14:10:49.110Z,36.40
2018-05-31T14:13:16.579Z,36.50
2018-05-31T14:15:44.054Z,36.80
2018-05-31T14:18:13.041Z,36.80
2018-05-31T14:20:40.595Z,36.80
2018-05-31T14:23:08.055Z,37.00
2018-05-31T14:25:36.443Z,37.20
2018-05-31T14:28:03.903Z,37.30
2018-05-31T14:30:31.411Z,37.40
2018-05-31T14:32:58.870Z,37.40
2018-05-31T14:35:26.370Z,37.60
2018-05-31T14:37:53.924Z,37.50
2018-05-31T14:40:22.143Z,37.00
2018-05-31T14:42:49.650Z,37.00
2018-05-31T14:45:17.108Z,36.80
2018-05-31T14:47:44.578Z,36.40
2018-05-31T14:50:12.039Z,36.20
2018-05-31T14:52:39.578Z,35.90
2018-05-31T14:55:07.204Z,35.90
2018-05-31T14:57:34.667Z,35.90
2018-05-31T15:00:02.402Z,36.00
2018-05-31T15:02:30.670Z,36.50
2018-05-31T15:04:58.904Z,36.50
2018-05-31T15:07:26.370Z,36.50
2018-05-31T15:09:53.826Z,36.30
2018-05-31T15:12:21.303Z,35.90
2018-05-31T15:14:48.757Z,35.50
2018-05-31T15:17:17.078Z,34.90
2018-05-31T15:19:44.575Z,34.80
2018-05-31T15:22:12.136Z,34.40
2018-05-31T15:24:39.705Z,33.90
2018-05-31T15:27:07.168Z,34.20
2018-05-31T15:29:34.717Z,34.80
2018-05-31T15:32:02.171Z,35.30
2018-05-31T15:34:29.643Z,35.70
2018-05-31T15:36:57.903Z,35.90
2018-05-31T15:39:25.367Z,35.80
2018-05-31T15:41:53.274Z,35.70
2018-05-31T15:44:20.743Z,35.50
2018-05-31T15:46:48.234Z,35.30
2018-05-31T15:49:15.795Z,35.10
2018-05-31T15:51:43.409Z,35.00
2018-05-31T15:54:11.010Z,34.90
2018-05-31T15:56:38.612Z,35.10
2018-05-31T15:59:06.843Z,35.10
2018-05-31T16:01:34.298Z,35.10
2018-05-31T16:04:01.868Z,34.90
2018-05-31T16:06:29.418Z,34.70
2018-05-31T16:08:56.882Z,34.50
2018-05-31T16:11:24.544Z,34.40
2018-05-31T16:13:52.011Z,34.30
2018-05-31T16:16:19.555Z,34.20
2018-05-31T16:18:47.022Z,34.00
2018-05-31T16:21:14.489Z,33.80
2018-05-31T16:23:42.719Z,33.80
2018-05-31T16:26:10.175Z,33.70
2018-05-31T16:28:37.653Z,33.80
2018-05-31T16:31:05.206Z,33.70
2018-05-31T16:33:32.729Z,33.50
2018-05-31T16:36:00.196Z,33.40
2018-05-31T16:38:27.686Z,33.40
2018-05-31T16:40:55.321Z,33.50
2018-05-31T16:43:22.806Z,33.70
2018-05-31T16:45:50.272Z,33.90
2018-05-31T16:48:17.738Z,34.00
2018-05-31T16:50:45.973Z,34.00
2018-05-31T16:53:13.428Z,34.00
2018-05-31T16:55:40.887Z,34.00
2018-05-31T16:58:08.409Z,34.20
2018-05-31T17:00:35.910Z,34.30
2018-05-31T17:03:03.474Z,34.20
2018-05-31T17:05:30.971Z,33.90
2018-05-31T17:07:59.198Z,33.50
2018-05-31T17:10:26.766Z,33.40
2018-05-31T17:12:54.322Z,33.30
2018-05-31T17:15:21.797Z,33.30
2018-05-31T17:17:49.891Z,33.20
2018-05-31T17:20:18.117Z,33.00
2018-05-31T17:22:45.574Z,33.00
2018-05-31T17:25:13.055Z,32.90
2018-05-31T17:27:40.515Z,32.70
2018-05-31T17:30:08.979Z,32.40
2018-05-31T17:32:36.441Z,32.40
2018-05-31T17:35:03.971Z,32.40
2018-05-31T17:37:31.430Z,32.30
2018-05-31T17:39:58.899Z,32.20
2018-05-31T17:42:26.371Z,32.10
2018-05-31T17:44:53.842Z,32.00
2018-05-31T17:47:22.078Z,31.90
2018-05-31T17:49:49.574Z,31.90
2018-05-31T17:52:17.174Z,31.90
2018-05-31T17:54:44.634Z,31.90
2018-05-31T17:57:12.133Z,32.00
2018-05-31T17:59:39.693Z,31.90
2018-05-31T18:02:08.730Z,31.70
2018-05-31T18:04:36.194Z,31.70
2018-05-31T18:07:03.666Z,31.70
2018-05-31T18:09:31.131Z,31.60
2018-05-31T18:11:58.604Z,31.50
2018-05-31T18:14:26.213Z,31.40
2018-05-31T18:16:53.654Z,31.30
2018-05-31T18:19:21.126Z,31.20
2018-05-31T18:21:48.597Z,31.00
2018-05-31T18:24:16.115Z,30.90
2018-05-31T18:26:44.338Z,30.70
2018-05-31T18:29:11.813Z,30.60
2018-05-31T18:31:39.279Z,30.60
2018-05-31T18:34:07.579Z,30.50
2018-05-31T18:36:35.838Z,30.40
2018-05-31T18:39:04.072Z,30.30
2018-05-31T18:41:31.581Z,30.30
2018-05-31T18:43:59.822Z,30.30
2018-05-31T18:46:27.302Z,30.20
2018-05-31T18:48:54.764Z,30.20
2018-05-31T18:51:22.231Z,30.20
2018-05-31T18:53:52.260Z,30.10
2018-05-31T18:56:20.487Z,30.00
2018-05-31T18:58:47.983Z,30.00
2018-05-31T19:01:16.227Z,29.90
2018-05-31T19:03:43.709Z,29.90
2018-05-31T19:06:11.950Z,29.80
2018-05-31T19:08:39.459Z,29.80
2018-05-31T19:11:07.683Z,29.70
2018-05-31T19:13:40.930Z,29.70
2018-05-31T19:16:08.406Z,29.70
2018-05-31T19:18:41.671Z,29.60
2018-05-31T19:21:09.355Z,29.60
2018-05-31T19:23:36.877Z,29.60
2018-05-31T19:26:04.351Z,29.50
2018-05-31T19:28:32.577Z,29.50
2018-05-31T19:31:05.627Z,29.40
2018-05-31T19:33:33.138Z,29.40
2018-05-31T19:36:07.815Z,29.30
2018-05-31T19:38:35.278Z,29.30
2018-05-31T19:41:02.936Z,29.30
2018-05-31T19:43:36.035Z,29.30
2018-05-31T19:46:03.490Z,29.20
2018-05-31T19:48:30.954Z,29.20
2018-05-31T19:50:58.442Z,29.10
2018-05-31T19:53:33.140Z,29.10
2018-05-31T19:56:01.159Z,29.10
2018-05-31T19:58:35.089Z,29.20
2018-05-31T20:01:08.331Z,29.10
2018-05-31T20:03:35.826Z,29.10
2018-05-31T20:06:04.082Z,29.10
2018-05-31T20:08:32.467Z,29.10
2018-05-31T20:11:00.735Z,29.10
2018-05-31T20:13:28.328Z,29.00
2018-05-31T20:15:55.910Z,29.00
2018-05-31T20:18:23.439Z,29.00
2018-05-31T20:20:51.331Z,29.00
2018-05-31T20:23:19.576Z,28.80
2018-05-31T20:25:47.045Z,28.80
2018-05-31T20:28:14.502Z,28.80
2018-05-31T20:30:42.047Z,28.80
2018-05-31T20:33:10.290Z,28.70
2018-05-31T20:35:37.776Z,28.70
2018-05-31T20:38:05.999Z,28.60
2018-05-31T20:40:33.459Z,28.60
2018-05-31T20:43:00.931Z,28.60
2018-05-31T20:45:28.399Z,28.50
2018-05-31T20:47:56.628Z,28.50
2018-05-31T20:50:24.108Z,28.40
2018-05-31T20:52:51.571Z,28.40
2018-05-31T20:55:19.050Z,28.40
2018-05-31T20:57:47.270Z,28.30
2018-05-31T21:00:14.746Z,28.20
2018-05-31T21:02:42.211Z,28.30
2018-05-31T21:05:09.667Z,28.30
2018-05-31T21:07:37.131Z,28.30
2018-05-31T21:10:04.624Z,28.20
2018-05-31T21:12:32.846Z,28.20
2018-05-31T21:15:00.322Z,28.20
2018-05-31T21:17:27.874Z,28.20
2018-05-31T21:19:55.337Z,28.10
2018-05-31T21:22:22.886Z,28.10
2018-05-31T21:24:50.451Z,28.10
2018-05-31T21:27:18.020Z,28.00
2018-05-31T21:29:45.505Z,28.00
2018-05-31T21:32:12.963Z,28.00
2018-05-31T21:34:40.455Z,28.00
2018-05-31T21:37:07.912Z,28.00
2018-05-31T21:39:35.383Z,27.90
2018-05-31T21:42:02.848Z,27.90
2018-05-31T21:44:30.408Z,27.80
2018-05-31T21:46:57.863Z,27.80
2018-05-31T21:49:25.327Z,27.70
2018-05-31T21:51:52.782Z,27.60
2018-05-31T21:54:20.297Z,27.60
2018-05-31T21:56:47.774Z,27.60
2018-05-31T21:59:15.380Z,27.50
2018-05-31T22:01:43.607Z,27.40
2018-05-31T22:04:11.451Z,27.30
2018-05-31T22:06:38.961Z,27.30
2018-05-31T22:09:11.105Z,27.30
2018-05-31T22:11:38.787Z,27.20
2018-05-31T22:14:06.446Z,27.20
2018-05-31T22:16:37.817Z,27.10
2018-05-31T22:19:06.157Z,27.10
2018-05-31T22:21:33.614Z,27.00
2018-05-31T22:24:01.174Z,27.00
2018-05-31T22:26:28.751Z,26.90
2018-05-31T22:28:56.240Z,26.90
2018-05-31T22:31:23.710Z,26.80
2018-05-31T22:33:51.218Z,26.80
2018-05-31T22:36:18.705Z,26.80
2018-05-31T22:38:46.943Z,26.70
2018-05-31T22:41:14.410Z,26.70
2018-05-31T22:43:41.869Z,26.80
2018-05-31T22:46:09.360Z,26.70
2018-05-31T22:48:36.823Z,26.70
2018-05-31T22:51:04.289Z,26.70
2018-05-31T22:53:31.738Z,26.70
2018-05-31T22:55:59.195Z,26.60
2018-05-31T22:58:26.730Z,26.60
2018-05-31T23:00:54.953Z,26.50
2018-05-31T23:03:22.422Z,26.40
2018-05-31T23:05:49.898Z,26.40
2018-05-31T23:08:17.643Z,26.40
2018-05-31T23:10:45.230Z,26.40
2018-05-31T23:13:13.475Z,26.30
2018-05-31T23:15:40.948Z,26.20
2018-05-31T23:18:08.415Z,26.20
2018-05-31T23:20:36.643Z,26.10
2018-05-31T23:23:04.114Z,26.10
2018-05-31T23:25:31.596Z,26.10
2018-05-31T23:27:59.089Z,26.00
2018-05-31T23:30:26.554Z,26.00
2018-05-31T23:32:54.068Z,25.90
2018-05-31T23:35:21.526Z,26.00
2018-05-31T23:37:49.087Z,25.90
2018-05-31T23:40:16.544Z,26.00
2018-05-31T23:42:44.790Z,25.90
2018-05-31T23:45:12.370Z,25.90
2018-05-31T23:47:39.836Z,25.90
2018-05-31T23:50:07.296Z,25.80
2018-05-31T23:52:35.541Z,25.70
2018-05-31T23:55:03.020Z,25.70
2018-05-31T23:57:30.578Z,25.70
2018-05-31T23:59:58.048Z,25.70
